sensor_id;sensor_type;location;lat;lon;timestamp;temperature;humidity
56538;DHT22;42435;53.292;6.000;2023-03-14T00:02:02;10.90;73.00
56538;DHT22;42435;53.292;6.000;2023-03-14T00:04:28;10.80;73.00
56538;DHT22;42435;53.292;6.000;2023-03-14T00:06:53;10.90;73.10
56538;DHT22;42435;53.292;6.000;2023-03-14T00:09:19;10.80;73.20
56538;DHT22;42435;53.292;6.000;2023-03-14T00:11:44;10.80;73.20
56538;DHT22;42435;53.292;6.000;2023-03-14T00:14:11;10.80;73.30
56538;DHT22;42435;53.292;6.000;2023-03-14T00:16:37;10.90;73.30
56538;DHT22;42435;53.292;6.000;2023-03-14T00:19:02;10.90;73.40
56538;DHT22;42435;53.292;6.000;2023-03-14T00:21:28;10.90;73.40
56538;DHT22;42435;53.292;6.000;2023-03-14T00:23:53;10.90;73.40
56538;DHT22;42435;53.292;6.000;2023-03-14T00:26:22;10.90;73.40
56538;DHT22;42435;53.292;6.000;2023-03-14T00:28:51;10.90;73.40
56538;DHT22;42435;53.292;6.000;2023-03-14T00:31:17;10.90;73.40
56538;DHT22;42435;53.292;6.000;2023-03-14T00:33:44;10.90;73.50
56538;DHT22;42435;53.292;6.000;2023-03-14T00:36:13;10.90;73.50
56538;DHT22;42435;53.292;6.000;2023-03-14T00:38:39;10.80;73.50
56538;DHT22;42435;53.292;6.000;2023-03-14T00:41:08;10.90;73.60
56538;DHT22;42435;53.292;6.000;2023-03-14T00:43:34;10.80;73.60
56538;DHT22;42435;53.292;6.000;2023-03-14T00:46:00;10.90;73.70
56538;DHT22;42435;53.292;6.000;2023-03-14T00:48:26;10.80;73.70
56538;DHT22;42435;53.292;6.000;2023-03-14T00:50:52;10.80;73.70
56538;DHT22;42435;53.292;6.000;2023-03-14T00:53:18;10.80;73.80
56538;DHT22;42435;53.292;6.000;2023-03-14T00:55:44;10.70;73.90
56538;DHT22;42435;53.292;6.000;2023-03-14T00:58:15;10.70;73.90
56538;DHT22;42435;53.292;6.000;2023-03-14T01:00:41;10.60;74.00
56538;DHT22;42435;53.292;6.000;2023-03-14T01:03:08;10.60;74.10
56538;DHT22;42435;53.292;6.000;2023-03-14T01:05:34;10.50;74.20
56538;DHT22;42435;53.292;6.000;2023-03-14T01:08:09;10.50;74.30
56538;DHT22;42435;53.292;6.000;2023-03-14T01:10:40;10.50;74.40
56538;DHT22;42435;53.292;6.000;2023-03-14T01:13:06;10.50;74.50
56538;DHT22;42435;53.292;6.000;2023-03-14T01:15:33;10.50;74.60
56538;DHT22;42435;53.292;6.000;2023-03-14T01:17:58;10.50;74.80
56538;DHT22;42435;53.292;6.000;2023-03-14T01:20:27;10.50;74.90
56538;DHT22;42435;53.292;6.000;2023-03-14T01:22:53;10.50;75.00
56538;DHT22;42435;53.292;6.000;2023-03-14T01:25:19;10.50;75.00
56538;DHT22;42435;53.292;6.000;2023-03-14T01:27:45;10.60;75.10
56538;DHT22;42435;53.292;6.000;2023-03-14T01:30:11;10.60;75.20
56538;DHT22;42435;53.292;6.000;2023-03-14T01:32:38;10.60;75.30
56538;DHT22;42435;53.292;6.000;2023-03-14T01:35:04;10.60;75.50
56538;DHT22;42435;53.292;6.000;2023-03-14T01:37:30;10.60;75.70
56538;DHT22;42435;53.292;6.000;2023-03-14T01:40:01;10.70;75.80
56538;DHT22;42435;53.292;6.000;2023-03-14T01:42:29;10.70;75.90
56538;DHT22;42435;53.292;6.000;2023-03-14T01:44:57;10.70;76.00
56538;DHT22;42435;53.292;6.000;2023-03-14T01:47:23;10.70;76.10
56538;DHT22;42435;53.292;6.000;2023-03-14T01:50:04;10.70;76.10
56538;DHT22;42435;53.292;6.000;2023-03-14T01:52:36;10.70;76.20
56538;DHT22;42435;53.292;6.000;2023-03-14T01:55:08;10.80;76.30
56538;DHT22;42435;53.292;6.000;2023-03-14T01:57:43;10.80;76.50
56538;DHT22;42435;53.292;6.000;2023-03-14T02:00:13;10.80;76.60
56538;DHT22;42435;53.292;6.000;2023-03-14T02:02:41;10.70;76.50
56538;DHT22;42435;53.292;6.000;2023-03-14T02:05:09;10.80;76.60
56538;DHT22;42435;53.292;6.000;2023-03-14T02:07:37;10.70;76.70
56538;DHT22;42435;53.292;6.000;2023-03-14T02:10:05;10.80;76.80
56538;DHT22;42435;53.292;6.000;2023-03-14T02:12:31;10.70;76.80
56538;DHT22;42435;53.292;6.000;2023-03-14T02:14:57;10.70;77.00
56538;DHT22;42435;53.292;6.000;2023-03-14T02:17:26;10.70;77.10
56538;DHT22;42435;53.292;6.000;2023-03-14T02:20:14;10.60;77.20
56538;DHT22;42435;53.292;6.000;2023-03-14T02:22:45;10.60;77.50
56538;DHT22;42435;53.292;6.000;2023-03-14T02:27:50;10.60;77.80
56538;DHT22;42435;53.292;6.000;2023-03-14T02:30:27;10.60;77.80
56538;DHT22;42435;53.292;6.000;2023-03-14T02:33:09;10.50;78.20
56538;DHT22;42435;53.292;6.000;2023-03-14T02:35:51;10.50;78.30
56538;DHT22;42435;53.292;6.000;2023-03-14T02:38:24;10.50;78.30
56538;DHT22;42435;53.292;6.000;2023-03-14T02:40:52;10.50;78.60
56538;DHT22;42435;53.292;6.000;2023-03-14T02:43:18;10.40;78.70
56538;DHT22;42435;53.292;6.000;2023-03-14T02:45:48;10.40;78.90
56538;DHT22;42435;53.292;6.000;2023-03-14T02:51:14;10.40;79.40
56538;DHT22;42435;53.292;6.000;2023-03-14T02:53:41;10.30;79.30
56538;DHT22;42435;53.292;6.000;2023-03-14T02:56:08;10.30;79.60
56538;DHT22;42435;53.292;6.000;2023-03-14T02:58:34;10.30;79.80
56538;DHT22;42435;53.292;6.000;2023-03-14T03:01:00;10.30;80.00
56538;DHT22;42435;53.292;6.000;2023-03-14T03:03:26;10.20;80.10
56538;DHT22;42435;53.292;6.000;2023-03-14T03:05:54;10.20;80.40
56538;DHT22;42435;53.292;6.000;2023-03-14T03:08:21;10.20;80.50
56538;DHT22;42435;53.292;6.000;2023-03-14T03:10:47;10.20;80.70
56538;DHT22;42435;53.292;6.000;2023-03-14T03:13:16;10.20;80.90
56538;DHT22;42435;53.292;6.000;2023-03-14T03:15:42;10.20;81.10
56538;DHT22;42435;53.292;6.000;2023-03-14T03:18:10;10.20;81.20
56538;DHT22;42435;53.292;6.000;2023-03-14T03:20:36;10.10;81.30
56538;DHT22;42435;53.292;6.000;2023-03-14T03:23:02;10.10;81.40
56538;DHT22;42435;53.292;6.000;2023-03-14T03:25:28;10.10;81.40
56538;DHT22;42435;53.292;6.000;2023-03-14T03:27:54;10.10;81.50
56538;DHT22;42435;53.292;6.000;2023-03-14T03:30:20;10.00;81.60
56538;DHT22;42435;53.292;6.000;2023-03-14T03:32:46;10.10;81.60
56538;DHT22;42435;53.292;6.000;2023-03-14T03:35:12;10.10;81.70
56538;DHT22;42435;53.292;6.000;2023-03-14T03:37:38;10.10;81.70
56538;DHT22;42435;53.292;6.000;2023-03-14T03:40:04;10.00;81.80
56538;DHT22;42435;53.292;6.000;2023-03-14T03:42:32;10.10;81.70
56538;DHT22;42435;53.292;6.000;2023-03-14T03:44:59;10.10;81.80
56538;DHT22;42435;53.292;6.000;2023-03-14T03:47:25;10.10;81.80
56538;DHT22;42435;53.292;6.000;2023-03-14T03:49:50;10.00;81.80
56538;DHT22;42435;53.292;6.000;2023-03-14T03:52:16;10.10;81.80
56538;DHT22;42435;53.292;6.000;2023-03-14T03:54:42;10.00;81.90
56538;DHT22;42435;53.292;6.000;2023-03-14T03:57:07;10.10;81.90
56538;DHT22;42435;53.292;6.000;2023-03-14T03:59:33;10.00;82.00
56538;DHT22;42435;53.292;6.000;2023-03-14T04:02:02;10.00;82.00
56538;DHT22;42435;53.292;6.000;2023-03-14T04:04:27;10.00;82.10
56538;DHT22;42435;53.292;6.000;2023-03-14T04:06:53;10.00;82.00
56538;DHT22;42435;53.292;6.000;2023-03-14T04:09:21;10.00;82.10
56538;DHT22;42435;53.292;6.000;2023-03-14T04:11:47;10.00;82.00
56538;DHT22;42435;53.292;6.000;2023-03-14T04:14:15;10.00;82.10
56538;DHT22;42435;53.292;6.000;2023-03-14T04:16:41;10.00;82.00
56538;DHT22;42435;53.292;6.000;2023-03-14T04:19:10;10.00;82.00
56538;DHT22;42435;53.292;6.000;2023-03-14T04:21:35;10.00;82.00
56538;DHT22;42435;53.292;6.000;2023-03-14T04:24:01;10.00;82.00
56538;DHT22;42435;53.292;6.000;2023-03-14T04:26:26;10.00;82.00
56538;DHT22;42435;53.292;6.000;2023-03-14T04:28:56;10.00;82.00
56538;DHT22;42435;53.292;6.000;2023-03-14T04:31:21;10.00;82.00
56538;DHT22;42435;53.292;6.000;2023-03-14T04:33:47;10.00;82.00
56538;DHT22;42435;53.292;6.000;2023-03-14T04:36:14;10.00;82.10
56538;DHT22;42435;53.292;6.000;2023-03-14T04:38:40;10.00;82.20
56538;DHT22;42435;53.292;6.000;2023-03-14T04:41:06;10.00;82.30
56538;DHT22;42435;53.292;6.000;2023-03-14T04:43:32;9.90;82.40
56538;DHT22;42435;53.292;6.000;2023-03-14T04:45:58;9.90;82.40
56538;DHT22;42435;53.292;6.000;2023-03-14T04:48:25;9.90;82.50
56538;DHT22;42435;53.292;6.000;2023-03-14T04:50:51;9.90;82.60
56538;DHT22;42435;53.292;6.000;2023-03-14T04:53:17;9.90;82.70
56538;DHT22;42435;53.292;6.000;2023-03-14T04:56:03;9.90;82.80
56538;DHT22;42435;53.292;6.000;2023-03-14T04:58:28;9.80;83.10
56538;DHT22;42435;53.292;6.000;2023-03-14T05:00:54;9.80;83.00
56538;DHT22;42435;53.292;6.000;2023-03-14T05:03:19;9.80;83.10
56538;DHT22;42435;53.292;6.000;2023-03-14T05:05:48;9.80;83.30
56538;DHT22;42435;53.292;6.000;2023-03-14T05:08:14;9.80;83.40
56538;DHT22;42435;53.292;6.000;2023-03-14T05:10:39;9.80;83.50
56538;DHT22;42435;53.292;6.000;2023-03-14T05:13:05;9.70;83.60
56538;DHT22;42435;53.292;6.000;2023-03-14T05:15:30;9.80;83.60
56538;DHT22;42435;53.292;6.000;2023-03-14T05:17:56;9.80;83.70
56538;DHT22;42435;53.292;6.000;2023-03-14T05:20:21;9.80;83.70
56538;DHT22;42435;53.292;6.000;2023-03-14T05:22:47;9.80;83.80
56538;DHT22;42435;53.292;6.000;2023-03-14T05:25:13;9.80;83.80
56538;DHT22;42435;53.292;6.000;2023-03-14T05:27:38;9.80;83.90
56538;DHT22;42435;53.292;6.000;2023-03-14T05:30:05;9.80;83.90
56538;DHT22;42435;53.292;6.000;2023-03-14T05:32:31;9.80;84.00
56538;DHT22;42435;53.292;6.000;2023-03-14T05:34:56;9.80;84.00
56538;DHT22;42435;53.292;6.000;2023-03-14T05:37:25;9.80;84.00
56538;DHT22;42435;53.292;6.000;2023-03-14T05:39:51;9.80;84.20
56538;DHT22;42435;53.292;6.000;2023-03-14T05:42:17;9.80;84.20
56538;DHT22;42435;53.292;6.000;2023-03-14T05:44:42;9.70;84.30
56538;DHT22;42435;53.292;6.000;2023-03-14T05:47:08;9.70;84.00
56538;DHT22;42435;53.292;6.000;2023-03-14T05:49:33;9.50;82.70
56538;DHT22;42435;53.292;6.000;2023-03-14T05:52:02;9.30;81.90
56538;DHT22;42435;53.292;6.000;2023-03-14T05:54:27;8.90;81.30
56538;DHT22;42435;53.292;6.000;2023-03-14T05:56:53;8.60;80.70
56538;DHT22;42435;53.292;6.000;2023-03-14T05:59:18;8.30;81.00
56538;DHT22;42435;53.292;6.000;2023-03-14T06:01:44;8.00;81.40
56538;DHT22;42435;53.292;6.000;2023-03-14T06:04:10;7.80;81.80
56538;DHT22;42435;53.292;6.000;2023-03-14T06:06:35;7.70;82.00
56538;DHT22;42435;53.292;6.000;2023-03-14T06:09:01;7.40;82.10
56538;DHT22;42435;53.292;6.000;2023-03-14T06:11:26;7.30;82.20
56538;DHT22;42435;53.292;6.000;2023-03-14T06:13:52;7.10;82.30
56538;DHT22;42435;53.292;6.000;2023-03-14T06:16:18;6.90;82.50
56538;DHT22;42435;53.292;6.000;2023-03-14T06:18:43;6.80;82.70
56538;DHT22;42435;53.292;6.000;2023-03-14T06:21:11;6.60;82.70
56538;DHT22;42435;53.292;6.000;2023-03-14T06:23:37;6.40;82.60
56538;DHT22;42435;53.292;6.000;2023-03-14T06:26:02;6.30;82.70
56538;DHT22;42435;53.292;6.000;2023-03-14T06:28:28;6.10;82.50
56538;DHT22;42435;53.292;6.000;2023-03-14T06:30:57;6.00;82.60
56538;DHT22;42435;53.292;6.000;2023-03-14T06:33:23;5.80;82.80
56538;DHT22;42435;53.292;6.000;2023-03-14T06:35:52;5.80;83.00
56538;DHT22;42435;53.292;6.000;2023-03-14T06:38:17;5.70;83.20
56538;DHT22;42435;53.292;6.000;2023-03-14T06:40:43;5.60;83.10
56538;DHT22;42435;53.292;6.000;2023-03-14T06:43:08;5.50;82.80
56538;DHT22;42435;53.292;6.000;2023-03-14T06:45:34;5.40;82.80
56538;DHT22;42435;53.292;6.000;2023-03-14T06:48:00;5.30;82.90
56538;DHT22;42435;53.292;6.000;2023-03-14T06:50:28;5.20;83.00
56538;DHT22;42435;53.292;6.000;2023-03-14T06:52:54;5.20;83.20
56538;DHT22;42435;53.292;6.000;2023-03-14T06:55:19;5.20;83.30
56538;DHT22;42435;53.292;6.000;2023-03-14T06:57:46;5.20;83.40
56538;DHT22;42435;53.292;6.000;2023-03-14T07:00:12;5.20;83.60
56538;DHT22;42435;53.292;6.000;2023-03-14T07:02:38;5.20;83.70
56538;DHT22;42435;53.292;6.000;2023-03-14T07:05:04;5.20;83.80
56538;DHT22;42435;53.292;6.000;2023-03-14T07:07:33;5.20;83.90
56538;DHT22;42435;53.292;6.000;2023-03-14T07:09:59;5.20;83.90
56538;DHT22;42435;53.292;6.000;2023-03-14T07:12:25;5.20;83.90
56538;DHT22;42435;53.292;6.000;2023-03-14T07:14:50;5.20;83.80
56538;DHT22;42435;53.292;6.000;2023-03-14T07:17:16;5.20;83.70
56538;DHT22;42435;53.292;6.000;2023-03-14T07:19:41;5.20;83.50
56538;DHT22;42435;53.292;6.000;2023-03-14T07:22:07;5.10;83.30
56538;DHT22;42435;53.292;6.000;2023-03-14T07:24:32;5.20;83.20
56538;DHT22;42435;53.292;6.000;2023-03-14T07:26:58;5.10;83.10
56538;DHT22;42435;53.292;6.000;2023-03-14T07:29:23;5.20;83.10
56538;DHT22;42435;53.292;6.000;2023-03-14T07:31:49;5.20;83.10
56538;DHT22;42435;53.292;6.000;2023-03-14T07:34:15;5.20;83.00
56538;DHT22;42435;53.292;6.000;2023-03-14T07:36:40;5.30;82.90
56538;DHT22;42435;53.292;6.000;2023-03-14T07:39:06;5.30;82.80
56538;DHT22;42435;53.292;6.000;2023-03-14T07:41:32;5.40;82.80
56538;DHT22;42435;53.292;6.000;2023-03-14T07:43:58;5.40;82.80
56538;DHT22;42435;53.292;6.000;2023-03-14T07:46:26;5.50;82.70
56538;DHT22;42435;53.292;6.000;2023-03-14T07:48:52;5.50;82.70
56538;DHT22;42435;53.292;6.000;2023-03-14T07:51:17;5.50;82.50
56538;DHT22;42435;53.292;6.000;2023-03-14T07:53:43;5.60;82.20
56538;DHT22;42435;53.292;6.000;2023-03-14T07:56:09;5.60;82.10
56538;DHT22;42435;53.292;6.000;2023-03-14T07:58:34;5.60;82.00
56538;DHT22;42435;53.292;6.000;2023-03-14T08:01:00;5.70;82.00
56538;DHT22;42435;53.292;6.000;2023-03-14T08:03:29;5.70;81.80
56538;DHT22;42435;53.292;6.000;2023-03-14T08:05:57;5.80;81.60
56538;DHT22;42435;53.292;6.000;2023-03-14T08:08:23;5.80;81.50
56538;DHT22;42435;53.292;6.000;2023-03-14T08:10:48;5.90;81.30
56538;DHT22;42435;53.292;6.000;2023-03-14T08:13:14;5.90;80.90
56538;DHT22;42435;53.292;6.000;2023-03-14T08:15:40;5.90;80.50
56538;DHT22;42435;53.292;6.000;2023-03-14T08:18:05;5.90;80.50
56538;DHT22;42435;53.292;6.000;2023-03-14T08:20:31;6.00;80.40
56538;DHT22;42435;53.292;6.000;2023-03-14T08:22:58;6.00;80.30
56538;DHT22;42435;53.292;6.000;2023-03-14T08:25:28;6.10;80.10
56538;DHT22;42435;53.292;6.000;2023-03-14T08:27:54;6.20;80.30
56538;DHT22;42435;53.292;6.000;2023-03-14T08:30:21;6.20;80.40
56538;DHT22;42435;53.292;6.000;2023-03-14T08:32:53;6.40;80.40
56538;DHT22;42435;53.292;6.000;2023-03-14T08:35:19;6.50;80.20
56538;DHT22;42435;53.292;6.000;2023-03-14T08:37:45;6.60;80.00
56538;DHT22;42435;53.292;6.000;2023-03-14T08:40:11;6.70;79.50
56538;DHT22;42435;53.292;6.000;2023-03-14T08:42:38;6.80;78.80
56538;DHT22;42435;53.292;6.000;2023-03-14T08:45:05;6.80;78.80
56538;DHT22;42435;53.292;6.000;2023-03-14T08:47:31;6.80;78.60
56538;DHT22;42435;53.292;6.000;2023-03-14T08:49:57;6.80;78.70
56538;DHT22;42435;53.292;6.000;2023-03-14T08:52:22;6.90;78.30
56538;DHT22;42435;53.292;6.000;2023-03-14T08:54:48;6.80;78.10
56538;DHT22;42435;53.292;6.000;2023-03-14T08:57:14;6.80;77.80
56538;DHT22;42435;53.292;6.000;2023-03-14T08:59:39;6.80;77.50
56538;DHT22;42435;53.292;6.000;2023-03-14T09:02:05;6.70;77.50
56538;DHT22;42435;53.292;6.000;2023-03-14T09:04:34;6.70;77.60
56538;DHT22;42435;53.292;6.000;2023-03-14T09:06:59;6.70;76.70
56538;DHT22;42435;53.292;6.000;2023-03-14T09:09:25;6.80;76.20
56538;DHT22;42435;53.292;6.000;2023-03-14T09:11:55;6.80;74.70
56538;DHT22;42435;53.292;6.000;2023-03-14T09:14:21;6.80;73.60
56538;DHT22;42435;53.292;6.000;2023-03-14T09:16:47;6.80;73.70
56538;DHT22;42435;53.292;6.000;2023-03-14T09:19:12;6.80;73.20
56538;DHT22;42435;53.292;6.000;2023-03-14T09:21:38;6.80;73.00
56538;DHT22;42435;53.292;6.000;2023-03-14T09:24:04;6.80;73.20
56538;DHT22;42435;53.292;6.000;2023-03-14T09:26:30;6.80;73.10
56538;DHT22;42435;53.292;6.000;2023-03-14T09:28:56;6.80;72.30
56538;DHT22;42435;53.292;6.000;2023-03-14T09:31:21;6.70;71.40
56538;DHT22;42435;53.292;6.000;2023-03-14T09:33:47;6.70;71.00
56538;DHT22;42435;53.292;6.000;2023-03-14T09:36:12;6.70;71.00
56538;DHT22;42435;53.292;6.000;2023-03-14T09:38:38;6.70;70.20
56538;DHT22;42435;53.292;6.000;2023-03-14T09:41:16;6.70;70.30
56538;DHT22;42435;53.292;6.000;2023-03-14T09:43:44;6.80;69.50
56538;DHT22;42435;53.292;6.000;2023-03-14T09:46:11;6.90;69.30
56538;DHT22;42435;53.292;6.000;2023-03-14T09:48:37;6.90;67.40
56538;DHT22;42435;53.292;6.000;2023-03-14T09:51:12;6.90;66.70
56538;DHT22;42435;53.292;6.000;2023-03-14T09:53:45;7.00;66.90
56538;DHT22;42435;53.292;6.000;2023-03-14T09:56:21;7.10;67.40
56538;DHT22;42435;53.292;6.000;2023-03-14T09:58:58;7.30;67.50
56538;DHT22;42435;53.292;6.000;2023-03-14T10:01:28;7.40;66.60
56538;DHT22;42435;53.292;6.000;2023-03-14T10:03:56;7.50;65.40
56538;DHT22;42435;53.292;6.000;2023-03-14T10:06:26;7.50;64.90
56538;DHT22;42435;53.292;6.000;2023-03-14T10:08:52;7.50;65.30
56538;DHT22;42435;53.292;6.000;2023-03-14T10:11:19;7.50;64.10
56538;DHT22;42435;53.292;6.000;2023-03-14T10:14:05;7.60;63.40
56538;DHT22;42435;53.292;6.000;2023-03-14T10:16:34;7.50;63.40
56538;DHT22;42435;53.292;6.000;2023-03-14T10:19:09;7.40;63.10
56538;DHT22;42435;53.292;6.000;2023-03-14T10:21:37;7.40;62.00
56538;DHT22;42435;53.292;6.000;2023-03-14T10:24:08;7.30;61.50
56538;DHT22;42435;53.292;6.000;2023-03-14T10:26:34;7.40;61.50
56538;DHT22;42435;53.292;6.000;2023-03-14T10:29:09;7.60;62.00
56538;DHT22;42435;53.292;6.000;2023-03-14T10:31:50;7.70;59.90
56538;DHT22;42435;53.292;6.000;2023-03-14T10:34:21;7.70;60.00
56538;DHT22;42435;53.292;6.000;2023-03-14T10:36:52;7.70;59.70
56538;DHT22;42435;53.292;6.000;2023-03-14T10:39:22;7.90;61.40
56538;DHT22;42435;53.292;6.000;2023-03-14T10:41:51;8.20;62.30
56538;DHT22;42435;53.292;6.000;2023-03-14T10:44:21;8.40;59.70
56538;DHT22;42435;53.292;6.000;2023-03-14T10:46:59;8.50;58.50
56538;DHT22;42435;53.292;6.000;2023-03-14T10:49:34;8.40;56.30
56538;DHT22;42435;53.292;6.000;2023-03-14T10:52:13;8.20;57.10
56538;DHT22;42435;53.292;6.000;2023-03-14T10:54:39;8.20;57.90
56538;DHT22;42435;53.292;6.000;2023-03-14T10:57:05;8.10;56.10
56538;DHT22;42435;53.292;6.000;2023-03-14T10:59:39;8.20;56.10
56538;DHT22;42435;53.292;6.000;2023-03-14T11:05:35;8.40;57.00
56538;DHT22;42435;53.292;6.000;2023-03-14T11:08:20;8.50;54.60
56538;DHT22;42435;53.292;6.000;2023-03-14T11:10:53;8.60;55.30
56538;DHT22;42435;53.292;6.000;2023-03-14T11:13:26;8.70;54.60
56538;DHT22;42435;53.292;6.000;2023-03-14T11:19:00;9.00;55.80
56538;DHT22;42435;53.292;6.000;2023-03-14T11:21:35;9.20;54.80
56538;DHT22;42435;53.292;6.000;2023-03-14T11:24:33;9.20;53.70
56538;DHT22;42435;53.292;6.000;2023-03-14T11:29:54;9.40;54.30
56538;DHT22;42435;53.292;6.000;2023-03-14T11:37:36;9.80;54.80
56538;DHT22;42435;53.292;6.000;2023-03-14T11:40:26;9.90;54.60
56538;DHT22;42435;53.292;6.000;2023-03-14T11:45:36;9.80;54.50
56538;DHT22;42435;53.292;6.000;2023-03-14T11:48:20;9.50;54.00
56538;DHT22;42435;53.292;6.000;2023-03-14T11:50:50;9.30;53.00
56538;DHT22;42435;53.292;6.000;2023-03-14T11:56:37;9.00;55.90
56538;DHT22;42435;53.292;6.000;2023-03-14T11:59:12;9.10;56.10
56538;DHT22;42435;53.292;6.000;2023-03-14T12:01:53;9.10;55.90
56538;DHT22;42435;53.292;6.000;2023-03-14T12:04:22;9.10;55.60
56538;DHT22;42435;53.292;6.000;2023-03-14T12:06:51;9.00;56.50
56538;DHT22;42435;53.292;6.000;2023-03-14T12:09:18;9.10;56.70
56538;DHT22;42435;53.292;6.000;2023-03-14T12:14:33;9.20;56.20
56538;DHT22;42435;53.292;6.000;2023-03-14T12:17:06;9.30;55.90
56538;DHT22;42435;53.292;6.000;2023-03-14T12:19:42;9.20;55.30
56538;DHT22;42435;53.292;6.000;2023-03-14T12:22:24;9.20;55.30
56538;DHT22;42435;53.292;6.000;2023-03-14T12:24:58;9.10;54.70
56538;DHT22;42435;53.292;6.000;2023-03-14T12:30:39;9.20;53.60
56538;DHT22;42435;53.292;6.000;2023-03-14T12:35:50;9.20;54.10
56538;DHT22;42435;53.292;6.000;2023-03-14T12:43:47;9.30;54.10
56538;DHT22;42435;53.292;6.000;2023-03-14T12:46:20;9.30;52.70
56538;DHT22;42435;53.292;6.000;2023-03-14T12:48:54;9.40;52.10
56538;DHT22;42435;53.292;6.000;2023-03-14T13:02:38;9.20;51.60
56538;DHT22;42435;53.292;6.000;2023-03-14T13:05:21;9.30;49.70
56538;DHT22;42435;53.292;6.000;2023-03-14T13:10:17;9.20;51.10
56538;DHT22;42435;53.292;6.000;2023-03-14T13:13:03;9.30;50.80
56538;DHT22;42435;53.292;6.000;2023-03-14T13:15:41;9.30;51.60
56538;DHT22;42435;53.292;6.000;2023-03-14T13:18:16;9.40;52.10
56538;DHT22;42435;53.292;6.000;2023-03-14T13:23:27;9.60;51.20
56538;DHT22;42435;53.292;6.000;2023-03-14T13:25:53;9.60;49.90
56538;DHT22;42435;53.292;6.000;2023-03-14T13:28:19;9.70;50.50
56538;DHT22;42435;53.292;6.000;2023-03-14T13:30:47;9.70;50.50
56538;DHT22;42435;53.292;6.000;2023-03-14T13:33:19;9.70;50.50
56538;DHT22;42435;53.292;6.000;2023-03-14T13:35:47;9.70;50.50
56538;DHT22;42435;53.292;6.000;2023-03-14T13:38:19;9.70;51.30
56538;DHT22;42435;53.292;6.000;2023-03-14T13:40:47;9.70;51.20
56538;DHT22;42435;53.292;6.000;2023-03-14T13:43:23;9.70;51.60
56538;DHT22;42435;53.292;6.000;2023-03-14T13:45:57;9.60;51.40
56538;DHT22;42435;53.292;6.000;2023-03-14T13:48:32;9.50;51.60
56538;DHT22;42435;53.292;6.000;2023-03-14T13:51:07;9.40;52.10
56538;DHT22;42435;53.292;6.000;2023-03-14T13:53:50;9.40;52.10
56538;DHT22;42435;53.292;6.000;2023-03-14T13:56:25;9.20;52.00
56538;DHT22;42435;53.292;6.000;2023-03-14T13:58:54;9.00;52.20
56538;DHT22;42435;53.292;6.000;2023-03-14T14:03:49;9.00;52.20
56538;DHT22;42435;53.292;6.000;2023-03-14T14:08:58;9.20;53.00
56538;DHT22;42435;53.292;6.000;2023-03-14T14:14:25;9.50;52.60
56538;DHT22;42435;53.292;6.000;2023-03-14T14:16:52;9.60;52.50
56538;DHT22;42435;53.292;6.000;2023-03-14T14:19:22;9.70;52.20
56538;DHT22;42435;53.292;6.000;2023-03-14T14:21:49;9.70;51.90
56538;DHT22;42435;53.292;6.000;2023-03-14T14:24:15;9.80;51.50
56538;DHT22;42435;53.292;6.000;2023-03-14T14:26:47;9.90;51.40
56538;DHT22;42435;53.292;6.000;2023-03-14T14:29:30;9.90;51.60
56538;DHT22;42435;53.292;6.000;2023-03-14T14:34:46;9.90;51.40
56538;DHT22;42435;53.292;6.000;2023-03-14T14:37:35;9.80;51.80
56538;DHT22;42435;53.292;6.000;2023-03-14T14:40:29;9.90;51.60
56538;DHT22;42435;53.292;6.000;2023-03-14T14:43:02;9.90;51.70
56538;DHT22;42435;53.292;6.000;2023-03-14T14:45:28;10.00;51.80
56538;DHT22;42435;53.292;6.000;2023-03-14T14:48:02;9.90;51.80
56538;DHT22;42435;53.292;6.000;2023-03-14T14:52:58;9.90;50.90
56538;DHT22;42435;53.292;6.000;2023-03-14T14:55:31;9.70;50.80
56538;DHT22;42435;53.292;6.000;2023-03-14T14:57:57;9.60;51.20
56538;DHT22;42435;53.292;6.000;2023-03-14T15:00:25;9.40;51.60
56538;DHT22;42435;53.292;6.000;2023-03-14T15:02:53;9.20;52.40
56538;DHT22;42435;53.292;6.000;2023-03-14T15:05:22;9.10;53.10
56538;DHT22;42435;53.292;6.000;2023-03-14T15:07:49;8.80;53.50
56538;DHT22;42435;53.292;6.000;2023-03-14T15:10:17;8.50;53.70
56538;DHT22;42435;53.292;6.000;2023-03-14T15:12:49;8.30;54.40
56538;DHT22;42435;53.292;6.000;2023-03-14T15:15:16;8.20;55.30
56538;DHT22;42435;53.292;6.000;2023-03-14T15:17:43;8.30;55.60
56538;DHT22;42435;53.292;6.000;2023-03-14T15:20:14;8.40;54.70
56538;DHT22;42435;53.292;6.000;2023-03-14T15:22:41;8.50;54.10
56538;DHT22;42435;53.292;6.000;2023-03-14T15:25:07;8.50;53.60
56538;DHT22;42435;53.292;6.000;2023-03-14T15:27:33;8.50;53.70
56538;DHT22;42435;53.292;6.000;2023-03-14T15:29:59;8.40;54.00
56538;DHT22;42435;53.292;6.000;2023-03-14T15:32:26;8.30;54.00
56538;DHT22;42435;53.292;6.000;2023-03-14T15:34:56;8.20;54.20
56538;DHT22;42435;53.292;6.000;2023-03-14T15:37:22;8.10;54.10
56538;DHT22;42435;53.292;6.000;2023-03-14T15:39:54;8.00;54.40
56538;DHT22;42435;53.292;6.000;2023-03-14T15:42:23;8.00;54.70
56538;DHT22;42435;53.292;6.000;2023-03-14T15:44:49;7.90;55.00
56538;DHT22;42435;53.292;6.000;2023-03-14T15:47:14;7.70;55.80
56538;DHT22;42435;53.292;6.000;2023-03-14T15:49:43;7.70;56.10
56538;DHT22;42435;53.292;6.000;2023-03-14T15:52:09;7.60;56.60
56538;DHT22;42435;53.292;6.000;2023-03-14T15:54:35;7.50;57.20
56538;DHT22;42435;53.292;6.000;2023-03-14T15:57:00;7.50;57.60
56538;DHT22;42435;53.292;6.000;2023-03-14T15:59:26;7.50;57.20
56538;DHT22;42435;53.292;6.000;2023-03-14T16:01:52;7.70;57.10
56538;DHT22;42435;53.292;6.000;2023-03-14T16:04:18;7.80;56.80
56538;DHT22;42435;53.292;6.000;2023-03-14T16:06:44;7.90;56.40
56538;DHT22;42435;53.292;6.000;2023-03-14T16:09:11;7.90;55.30
56538;DHT22;42435;53.292;6.000;2023-03-14T16:11:37;7.90;54.70
56538;DHT22;42435;53.292;6.000;2023-03-14T16:14:03;7.90;54.50
56538;DHT22;42435;53.292;6.000;2023-03-14T16:16:28;7.90;54.30
56538;DHT22;42435;53.292;6.000;2023-03-14T16:18:54;7.90;54.20
56538;DHT22;42435;53.292;6.000;2023-03-14T16:21:20;7.90;53.90
56538;DHT22;42435;53.292;6.000;2023-03-14T16:23:46;7.70;53.70
56538;DHT22;42435;53.292;6.000;2023-03-14T16:26:14;7.60;53.80
56538;DHT22;42435;53.292;6.000;2023-03-14T16:28:43;7.50;54.30
56538;DHT22;42435;53.292;6.000;2023-03-14T16:31:12;7.50;54.80
56538;DHT22;42435;53.292;6.000;2023-03-14T16:33:39;7.50;54.90
56538;DHT22;42435;53.292;6.000;2023-03-14T16:36:06;7.50;54.80
56538;DHT22;42435;53.292;6.000;2023-03-14T16:38:34;7.50;55.20
56538;DHT22;42435;53.292;6.000;2023-03-14T16:41:11;7.50;56.10
56538;DHT22;42435;53.292;6.000;2023-03-14T16:43:41;7.40;58.50
56538;DHT22;42435;53.292;6.000;2023-03-14T16:46:14;7.20;60.50
56538;DHT22;42435;53.292;6.000;2023-03-14T16:48:41;7.00;62.20
56538;DHT22;42435;53.292;6.000;2023-03-14T16:51:06;6.80;63.00
56538;DHT22;42435;53.292;6.000;2023-03-14T16:53:32;6.60;63.70
56538;DHT22;42435;53.292;6.000;2023-03-14T16:56:01;6.40;64.00
56538;DHT22;42435;53.292;6.000;2023-03-14T16:58:27;6.30;64.20
56538;DHT22;42435;53.292;6.000;2023-03-14T17:00:54;6.20;64.60